createdAt,value
2019-02-14T00:02:06.394Z,7.20
2019-02-14T00:04:35.602Z,7.20
2019-02-14T00:07:04.727Z,7.20
2019-02-14T00:09:34.210Z,7.20
2019-02-14T00:12:03.566Z,7.10
2019-02-14T00:14:32.612Z,7.10
2019-02-14T00:17:01.984Z,7.10
2019-02-14T00:19:31.367Z,7.10
2019-02-14T00:22:00.766Z,7.10
2019-02-14T00:24:30.333Z,7.10
2019-02-14T00:26:59.646Z,7.10
2019-02-14T00:29:28.931Z,7.00
2019-02-14T00:31:57.987Z,7.00
2019-02-14T00:34:27.187Z,7.10
2019-02-14T00:36:56.158Z,7.00
2019-02-14T00:39:25.264Z,7.10
2019-02-14T00:41:54.877Z,7.10
2019-02-14T00:44:23.855Z,7.10
2019-02-14T00:46:52.997Z,7.10
2019-02-14T00:49:22.215Z,7.10
2019-02-14T00:51:51.283Z,7.00
2019-02-14T00:54:20.298Z,7.00
2019-02-14T00:56:49.517Z,7.00
2019-02-14T00:59:18.472Z,7.00
2019-02-14T01:01:47.863Z,7.00
2019-02-14T01:04:16.829Z,7.00
2019-02-14T01:06:45.900Z,7.00
2019-02-14T01:09:15.002Z,7.00
2019-02-14T01:11:43.868Z,6.90
2019-02-14T01:14:13.000Z,6.90
2019-02-14T01:16:41.953Z,6.90
2019-02-14T01:19:10.894Z,6.80
2019-02-14T01:21:39.966Z,6.80
2019-02-14T01:24:09.339Z,6.80
2019-02-14T01:26:38.540Z,6.80
2019-02-14T01:29:07.549Z,6.80
2019-02-14T01:31:36.505Z,6.80
2019-02-14T01:34:06.257Z,6.80
2019-02-14T01:36:35.478Z,6.80
2019-02-14T01:39:05.384Z,6.80
2019-02-14T01:41:34.632Z,6.80
2019-02-14T01:44:03.912Z,6.80
2019-02-14T01:46:33.038Z,6.80
2019-02-14T01:49:02.231Z,6.80
2019-02-14T01:51:31.798Z,6.80
2019-02-14T01:54:01.017Z,6.80
2019-02-14T01:56:30.266Z,6.80
2019-02-14T01:58:59.234Z,6.80
2019-02-14T02:01:28.415Z,6.80
2019-02-14T02:03:57.516Z,6.80
2019-02-14T02:06:26.525Z,6.80
2019-02-14T02:08:55.774Z,6.80
2019-02-14T02:11:24.818Z,6.80
2019-02-14T02:13:53.846Z,6.70
2019-02-14T02:16:22.724Z,6.80
2019-02-14T02:18:51.817Z,6.70
2019-02-14T02:21:20.911Z,6.70
2019-02-14T02:23:50.148Z,6.70
2019-02-14T02:26:19.296Z,6.70
2019-02-14T02:31:24.590Z,6.60
2019-02-14T02:33:54.137Z,6.60
2019-02-14T02:36:24.041Z,6.60
2019-02-14T02:38:55.313Z,6.60
2019-02-14T02:41:27.233Z,6.50
2019-02-14T02:43:57.185Z,6.50
2019-02-14T02:46:28.814Z,6.50
2019-02-14T02:48:58.945Z,6.40
2019-02-14T02:51:28.381Z,6.40
2019-02-14T02:53:58.165Z,6.30
2019-02-14T02:56:27.995Z,6.30
2019-02-14T02:58:58.197Z,6.30
2019-02-14T03:01:27.699Z,6.20
2019-02-14T03:03:57.898Z,6.20
2019-02-14T03:06:27.683Z,6.20
2019-02-14T03:08:57.898Z,6.20
2019-02-14T03:11:27.792Z,6.10
2019-02-14T03:13:57.286Z,6.10
2019-02-14T03:16:27.339Z,6.10
2019-02-14T03:18:57.550Z,6.10
2019-02-14T03:21:27.934Z,6.10
2019-02-14T03:23:58.013Z,6.10
2019-02-14T03:26:27.696Z,6.10
2019-02-14T03:28:57.530Z,6.10
2019-02-14T03:31:27.570Z,6.00
2019-02-14T03:33:57.145Z,6.00
2019-02-14T03:36:27.079Z,6.00
2019-02-14T03:38:56.388Z,6.00
2019-02-14T03:41:26.047Z,5.90
2019-02-14T03:43:57.049Z,5.90
2019-02-14T03:46:26.425Z,5.90
2019-02-14T03:48:56.164Z,5.90
2019-02-14T03:51:25.695Z,5.90
2019-02-14T03:53:55.200Z,5.90
2019-02-14T03:56:24.779Z,5.90
2019-02-14T03:58:54.430Z,5.90
2019-02-14T04:01:25.003Z,5.90
2019-02-14T04:03:55.175Z,5.90
2019-02-14T04:06:27.491Z,5.90
2019-02-14T04:08:59.350Z,5.90
2019-02-14T04:11:29.176Z,5.90
2019-02-14T04:13:59.171Z,5.90
2019-02-14T04:16:29.041Z,5.90
2019-02-14T04:18:59.552Z,5.90
2019-02-14T04:21:29.624Z,5.90
2019-02-14T04:24:00.081Z,5.90
2019-02-14T04:26:30.164Z,5.80
2019-02-14T04:28:59.477Z,5.80
2019-02-14T04:31:29.558Z,5.70
2019-02-14T04:34:00.265Z,5.80
2019-02-14T04:36:35.846Z,5.70
2019-02-14T04:39:01.940Z,5.70
2019-02-14T04:41:31.592Z,5.70
2019-02-14T04:44:11.075Z,5.70
2019-02-14T04:46:41.476Z,5.80
2019-02-14T04:49:11.059Z,5.70
2019-02-14T04:51:40.524Z,5.70
2019-02-14T04:54:10.667Z,5.70
2019-02-14T04:56:40.259Z,5.60
2019-02-14T04:59:10.415Z,5.60
2019-02-14T05:01:40.265Z,5.50
2019-02-14T05:04:10.492Z,5.50
2019-02-14T05:06:44.413Z,5.50
2019-02-14T05:09:11.815Z,5.50
2019-02-14T05:11:42.072Z,5.50
2019-02-14T05:14:11.855Z,5.50
2019-02-14T05:16:41.250Z,5.40
2019-02-14T05:19:10.717Z,5.40
2019-02-14T05:21:40.189Z,5.40
2019-02-14T05:24:09.674Z,5.40
2019-02-14T05:26:39.185Z,5.40
2019-02-14T05:29:08.568Z,5.40
2019-02-14T05:31:37.989Z,5.40
2019-02-14T05:34:07.903Z,5.40
2019-02-14T05:36:37.563Z,5.40
2019-02-14T05:39:08.454Z,5.40
2019-02-14T05:41:38.030Z,5.40
2019-02-14T05:44:07.739Z,5.40
2019-02-14T05:46:37.176Z,5.40
2019-02-14T05:49:07.762Z,5.30
2019-02-14T05:51:37.074Z,5.30
2019-02-14T05:54:12.285Z,5.30
2019-02-14T05:56:41.889Z,5.30
2019-02-14T05:59:12.368Z,5.30
2019-02-14T06:01:41.908Z,5.20
2019-02-14T06:04:11.879Z,5.20
2019-02-14T06:06:42.624Z,5.20
2019-02-14T06:09:12.325Z,5.20
2019-02-14T06:11:42.636Z,5.20
2019-02-14T06:14:12.651Z,5.30
2019-02-14T06:16:42.188Z,5.30
2019-02-14T06:19:16.230Z,5.30
2019-02-14T06:21:46.212Z,5.30
2019-02-14T06:24:16.338Z,5.30
2019-02-14T06:26:46.013Z,5.30
2019-02-14T06:29:16.122Z,5.30
2019-02-14T06:31:45.301Z,5.30
2019-02-14T06:34:15.806Z,5.30
2019-02-14T06:36:46.594Z,5.20
2019-02-14T06:39:21.127Z,5.20
2019-02-14T06:41:52.938Z,5.30
2019-02-14T06:44:24.801Z,5.30
2019-02-14T06:46:56.746Z,5.30
2019-02-14T06:49:28.564Z,5.30
2019-02-14T06:52:06.786Z,5.30
2019-02-14T06:54:43.295Z,5.30
2019-02-14T06:57:16.428Z,5.40
2019-02-14T06:59:45.783Z,5.50
2019-02-14T07:02:15.172Z,5.50
2019-02-14T07:04:45.214Z,5.50
2019-02-14T07:07:18.568Z,5.50
2019-02-14T07:09:47.411Z,5.50
2019-02-14T07:12:19.101Z,5.50
2019-02-14T07:14:49.512Z,5.60
2019-02-14T07:17:19.287Z,5.60
2019-02-14T07:19:48.724Z,5.70
2019-02-14T07:22:18.312Z,5.70
2019-02-14T07:24:47.636Z,5.80
2019-02-14T07:27:17.237Z,5.80
2019-02-14T07:29:47.324Z,5.90
2019-02-14T07:32:19.672Z,6.10
2019-02-14T07:34:50.013Z,6.30
2019-02-14T07:37:26.504Z,6.40
2019-02-14T07:39:52.047Z,6.60
2019-02-14T07:42:24.708Z,6.70
2019-02-14T07:44:54.473Z,6.80
2019-02-14T07:47:24.550Z,6.70
2019-02-14T07:49:54.514Z,6.60
2019-02-14T07:52:25.357Z,6.50
2019-02-14T07:54:55.745Z,6.40
2019-02-14T07:57:25.106Z,6.40
2019-02-14T07:59:54.478Z,6.30
2019-02-14T08:02:23.689Z,6.40
2019-02-14T08:04:52.696Z,6.40
2019-02-14T08:07:21.942Z,6.40
2019-02-14T08:09:52.732Z,6.40
2019-02-14T08:12:22.107Z,6.50
2019-02-14T08:14:51.169Z,6.50
2019-02-14T08:17:20.220Z,6.50
2019-02-14T08:19:49.256Z,6.50
2019-02-14T08:22:18.729Z,6.50
2019-02-14T08:24:48.980Z,6.50
2019-02-14T08:27:18.493Z,6.50
2019-02-14T08:29:47.595Z,6.60
2019-02-14T08:32:17.062Z,6.60
2019-02-14T08:34:46.366Z,6.70
2019-02-14T08:37:15.349Z,6.80
2019-02-14T08:39:45.190Z,6.90
2019-02-14T08:42:14.607Z,7.00
2019-02-14T08:44:43.618Z,7.10
2019-02-14T08:47:12.936Z,7.20
2019-02-14T08:49:42.073Z,7.20
2019-02-14T08:52:11.351Z,7.30
2019-02-14T08:54:40.342Z,7.30
2019-02-14T08:57:09.609Z,7.30
2019-02-14T08:59:38.912Z,7.30
2019-02-14T09:02:07.871Z,7.40
2019-02-14T09:04:36.894Z,7.40
2019-02-14T09:07:05.976Z,7.50
2019-02-14T09:09:35.335Z,7.60
2019-02-14T09:12:04.276Z,7.70
2019-02-14T09:14:33.335Z,7.80
2019-02-14T09:17:02.265Z,7.90
2019-02-14T09:19:31.291Z,7.90
2019-02-14T09:22:00.712Z,8.10
2019-02-14T09:24:30.079Z,8.10
2019-02-14T09:26:59.047Z,8.30
2019-02-14T09:29:28.478Z,8.40
2019-02-14T09:31:57.460Z,8.50
2019-02-14T09:34:26.924Z,8.60
2019-02-14T09:36:55.882Z,8.80
2019-02-14T09:39:25.064Z,8.80
2019-02-14T09:41:54.070Z,8.90
2019-02-14T09:44:23.764Z,8.90
2019-02-14T09:46:53.358Z,9.00
2019-02-14T09:49:22.354Z,9.10
2019-02-14T09:51:51.667Z,9.20
2019-02-14T09:54:20.844Z,9.30
2019-02-14T09:56:49.814Z,9.40
2019-02-14T09:59:19.060Z,9.60
2019-02-14T10:01:48.533Z,9.80
2019-02-14T10:04:17.899Z,9.90
2019-02-14T10:06:47.311Z,10.10
2019-02-14T10:09:16.309Z,10.30
2019-02-14T10:11:45.281Z,10.50
2019-02-14T10:14:14.328Z,10.70
2019-02-14T10:16:43.406Z,10.80
2019-02-14T10:19:12.542Z,11.00
2019-02-14T10:21:41.955Z,11.10
2019-02-14T10:24:11.296Z,11.10
2019-02-14T10:26:40.353Z,11.20
2019-02-14T10:29:10.096Z,11.20
2019-02-14T10:31:39.151Z,11.10
2019-02-14T10:34:08.145Z,11.10
2019-02-14T10:36:37.100Z,11.10
2019-02-14T10:39:06.993Z,11.10
2019-02-14T10:41:35.916Z,11.20
2019-02-14T10:44:05.066Z,11.20
2019-02-14T10:46:35.759Z,11.20
2019-02-14T10:49:04.825Z,11.10
2019-02-14T10:51:33.975Z,10.90
2019-02-14T10:54:02.988Z,10.80
2019-02-14T10:56:32.372Z,10.80
2019-02-14T10:59:01.645Z,10.80
2019-02-14T11:01:30.695Z,10.90
2019-02-14T11:04:00.282Z,10.90
2019-02-14T11:06:29.796Z,11.00
2019-02-14T11:08:59.122Z,11.10
2019-02-14T11:11:28.463Z,11.20
2019-02-14T11:13:58.026Z,11.30
2019-02-14T11:16:27.162Z,11.30
2019-02-14T11:18:56.268Z,11.20
2019-02-14T11:21:25.336Z,11.20
2019-02-14T11:23:54.566Z,11.20
2019-02-14T11:26:23.727Z,11.30
2019-02-14T11:28:52.931Z,11.50
2019-02-14T11:31:22.539Z,11.70
2019-02-14T11:33:51.745Z,12.00
2019-02-14T11:36:20.884Z,12.20
2019-02-14T11:38:50.028Z,12.30
2019-02-14T11:41:19.459Z,12.40
2019-02-14T11:43:48.610Z,12.50
2019-02-14T11:46:18.688Z,12.50
2019-02-14T11:48:48.053Z,12.60
2019-02-14T11:51:17.403Z,12.60
2019-02-14T11:53:46.663Z,12.60
2019-02-14T11:56:16.217Z,12.60
2019-02-14T11:58:46.025Z,12.70
2019-02-14T12:01:15.221Z,12.70
2019-02-14T12:03:44.753Z,12.90
2019-02-14T12:06:17.589Z,13.00
2019-02-14T12:08:57.923Z,13.10
2019-02-14T12:11:16.195Z,13.30
2019-02-14T12:13:45.698Z,13.40
2019-02-14T12:16:14.723Z,13.50
2019-02-14T12:18:44.090Z,13.60
2019-02-14T12:21:13.366Z,13.70
2019-02-14T12:23:42.633Z,13.70
2019-02-14T12:26:11.740Z,13.60
2019-02-14T12:28:40.864Z,13.60
2019-02-14T12:31:10.136Z,13.60
2019-02-14T12:33:39.991Z,14.70
2019-02-14T12:36:09.030Z,13.70
2019-02-14T12:38:42.838Z,13.80
2019-02-14T12:41:12.239Z,13.90
2019-02-14T12:43:42.191Z,13.90
2019-02-14T12:46:11.961Z,13.80
2019-02-14T12:48:41.721Z,13.80
2019-02-14T12:51:11.478Z,13.60
2019-02-14T12:53:41.296Z,13.60
2019-02-14T12:56:10.507Z,13.60
2019-02-14T12:58:39.849Z,13.60
2019-02-14T13:01:09.324Z,13.70
2019-02-14T13:03:39.419Z,13.80
2019-02-14T13:06:09.901Z,13.90
2019-02-14T13:08:39.163Z,13.90
2019-02-14T13:11:08.920Z,14.00
2019-02-14T13:13:38.110Z,13.90
2019-02-14T13:16:08.168Z,13.90
2019-02-14T13:18:38.249Z,13.90
2019-02-14T13:21:07.723Z,13.90
2019-02-14T13:23:36.838Z,13.90
2019-02-14T13:26:06.135Z,13.90
2019-02-14T13:28:35.292Z,13.90
2019-02-14T13:31:04.885Z,14.00
2019-02-14T13:33:34.559Z,14.00
2019-02-14T13:36:03.775Z,14.20
2019-02-14T13:38:32.919Z,14.30
2019-02-14T13:41:09.584Z,14.40
2019-02-14T13:43:38.672Z,14.50
2019-02-14T13:46:08.020Z,14.60
2019-02-14T13:48:37.383Z,14.60
2019-02-14T13:51:06.486Z,14.70
2019-02-14T13:53:40.470Z,14.80
2019-02-14T13:56:09.587Z,14.80
2019-02-14T13:58:38.704Z,14.70
2019-02-14T14:01:07.779Z,14.80
2019-02-14T14:03:37.179Z,14.70
2019-02-14T14:06:06.319Z,14.80
2019-02-14T14:08:35.466Z,14.80
2019-02-14T14:11:04.827Z,14.80
2019-02-14T14:13:34.302Z,14.90
2019-02-14T14:16:03.531Z,14.90
2019-02-14T14:18:33.851Z,15.00
2019-02-14T14:21:02.907Z,15.10
2019-02-14T14:23:32.974Z,15.20
2019-02-14T14:26:02.231Z,15.30
2019-02-14T14:28:31.521Z,15.30
2019-02-14T14:31:00.954Z,15.30
2019-02-14T14:33:30.221Z,15.30
2019-02-14T14:35:59.599Z,15.40
2019-02-14T14:38:29.072Z,15.40
2019-02-14T14:40:58.160Z,15.40
2019-02-14T14:43:43.077Z,15.50
2019-02-14T14:46:21.205Z,15.50
2019-02-14T14:48:50.596Z,15.50
2019-02-14T14:51:19.891Z,15.50
2019-02-14T14:53:49.295Z,15.50
2019-02-14T14:56:18.462Z,15.50
2019-02-14T14:58:47.471Z,15.60
2019-02-14T15:01:16.568Z,15.70
2019-02-14T15:03:46.233Z,15.80
2019-02-14T15:06:15.275Z,15.90
2019-02-14T15:08:44.409Z,15.90
2019-02-14T15:11:13.494Z,16.00
2019-02-14T15:13:42.485Z,16.10
2019-02-14T15:16:11.686Z,16.20
2019-02-14T15:18:41.273Z,16.20
2019-02-14T15:21:10.704Z,16.20
2019-02-14T15:23:39.775Z,16.20
2019-02-14T15:26:08.918Z,16.00
2019-02-14T15:28:38.271Z,16.00
2019-02-14T15:31:07.908Z,16.00
2019-02-14T15:33:37.380Z,15.90
2019-02-14T15:36:06.556Z,15.90
2019-02-14T15:38:37.016Z,15.90
2019-02-14T15:41:06.314Z,15.90
2019-02-14T15:43:36.147Z,15.80
2019-02-14T15:46:05.517Z,15.80
2019-02-14T15:48:34.856Z,15.80
2019-02-14T15:51:04.048Z,15.70
2019-02-14T15:53:33.151Z,15.60
2019-02-14T15:56:03.755Z,15.60
2019-02-14T15:58:34.131Z,15.50
2019-02-14T16:01:03.493Z,15.50
2019-02-14T16:03:33.298Z,15.50
2019-02-14T16:06:04.493Z,15.40
2019-02-14T16:08:33.610Z,15.40
2019-02-14T16:11:03.109Z,15.30
2019-02-14T16:13:33.648Z,15.30
2019-02-14T16:16:03.052Z,15.20
2019-02-14T16:18:32.457Z,15.10
2019-02-14T16:21:03.700Z,15.10
2019-02-14T16:23:34.191Z,15.00
2019-02-14T16:26:03.962Z,14.90
2019-02-14T16:28:36.030Z,14.90
2019-02-14T16:31:05.209Z,14.80
2019-02-14T16:33:34.332Z,14.70
2019-02-14T16:36:03.456Z,14.70
2019-02-14T16:38:33.567Z,14.70
2019-02-14T16:41:03.720Z,14.60
2019-02-14T16:43:32.870Z,14.50
2019-02-14T16:46:02.054Z,14.40
2019-02-14T16:48:31.095Z,14.30
2019-02-14T16:51:00.268Z,14.30
2019-02-14T16:53:29.444Z,14.20
2019-02-14T16:56:02.162Z,14.20
2019-02-14T16:58:30.783Z,14.10
2019-02-14T17:01:00.207Z,14.00
2019-02-14T17:03:29.312Z,14.00
2019-02-14T17:06:17.855Z,13.90
2019-02-14T17:08:46.971Z,13.90
2019-02-14T17:11:16.297Z,13.90
2019-02-14T17:13:45.413Z,13.80
2019-02-14T17:16:14.663Z,13.70
2019-02-14T17:18:43.910Z,13.70
2019-02-14T17:21:13.075Z,13.70
2019-02-14T17:23:42.583Z,13.60
2019-02-14T17:26:11.729Z,13.60
2019-02-14T17:28:41.154Z,13.50
2019-02-14T17:31:10.291Z,13.50
2019-02-14T17:33:39.538Z,13.40
2019-02-14T17:36:08.735Z,13.40
2019-02-14T17:38:38.120Z,13.30
2019-02-14T17:41:07.218Z,13.30
2019-02-14T17:43:36.584Z,13.20
2019-02-14T17:46:05.954Z,13.10
2019-02-14T17:48:35.211Z,13.10
2019-02-14T17:51:04.266Z,13.00
2019-02-14T17:53:33.276Z,12.90
2019-02-14T17:56:03.011Z,12.90
2019-02-14T17:58:32.620Z,12.80
2019-02-14T18:01:01.866Z,12.80
2019-02-14T18:03:31.324Z,12.70
2019-02-14T18:06:00.505Z,12.70
2019-02-14T18:08:29.688Z,12.60
2019-02-14T18:10:58.824Z,12.60
2019-02-14T18:13:27.975Z,12.60
2019-02-14T18:15:58.039Z,12.50
2019-02-14T18:18:27.229Z,12.50
2019-02-14T18:20:56.549Z,12.40
2019-02-14T18:23:26.782Z,12.40
2019-02-14T18:25:56.200Z,12.30
2019-02-14T18:28:27.940Z,12.30
2019-02-14T18:30:57.098Z,12.30
2019-02-14T18:33:26.517Z,12.20
2019-02-14T18:35:55.551Z,12.20
2019-02-14T18:38:24.696Z,12.20
2019-02-14T18:40:54.128Z,12.20
2019-02-14T18:43:23.681Z,12.10
2019-02-14T18:45:52.983Z,12.10
2019-02-14T18:48:22.073Z,12.00
2019-02-14T18:50:51.248Z,12.00
2019-02-14T18:53:20.285Z,11.90
2019-02-14T18:55:49.718Z,11.90
2019-02-14T18:58:26.125Z,11.90
2019-02-14T19:00:50.918Z,11.90
2019-02-14T19:03:20.083Z,11.80
2019-02-14T19:05:49.378Z,11.80
2019-02-14T19:08:18.756Z,11.80
2019-02-14T19:10:48.411Z,11.70
2019-02-14T19:13:18.852Z,11.70
2019-02-14T19:15:48.197Z,11.60
2019-02-14T19:18:17.201Z,11.60
2019-02-14T19:20:46.708Z,11.50
2019-02-14T19:23:23.376Z,11.50
2019-02-14T19:25:46.606Z,11.40
2019-02-14T19:28:15.905Z,11.40
2019-02-14T19:30:45.343Z,11.40
2019-02-14T19:33:14.415Z,11.30
2019-02-14T19:35:43.673Z,11.30
2019-02-14T19:38:12.737Z,11.30
2019-02-14T19:40:42.110Z,11.30
2019-02-14T19:43:11.583Z,11.30
2019-02-14T19:45:40.690Z,11.20
2019-02-14T19:48:09.810Z,11.10
2019-02-14T19:50:38.814Z,11.10
2019-02-14T19:53:08.245Z,11.00
2019-02-14T19:55:37.319Z,11.00
2019-02-14T19:58:06.412Z,11.00
2019-02-14T20:00:35.385Z,11.00
2019-02-14T20:03:04.425Z,11.00
2019-02-14T20:05:34.334Z,10.90
2019-02-14T20:08:03.920Z,10.90
2019-02-14T20:10:33.068Z,10.80
2019-02-14T20:13:02.143Z,10.80
2019-02-14T20:15:37.149Z,10.70
2019-02-14T20:18:03.491Z,10.70
2019-02-14T20:20:33.000Z,10.60
2019-02-14T20:23:03.077Z,10.60
2019-02-14T20:25:32.397Z,10.60
2019-02-14T20:28:01.489Z,10.60
2019-02-14T20:30:33.649Z,10.60
2019-02-14T20:33:05.182Z,10.50
2019-02-14T20:35:35.930Z,10.50
2019-02-14T20:38:07.774Z,10.50
2019-02-14T20:40:37.657Z,10.50
2019-02-14T20:43:08.059Z,10.50
2019-02-14T20:45:38.577Z,10.40
2019-02-14T20:48:08.164Z,10.40
2019-02-14T20:50:38.524Z,10.40
2019-02-14T20:53:08.042Z,10.40
2019-02-14T20:55:38.401Z,10.40
2019-02-14T20:58:08.296Z,10.30
2019-02-14T21:00:40.283Z,10.30
2019-02-14T21:03:10.476Z,10.30
2019-02-14T21:05:42.263Z,10.30
2019-02-14T21:08:14.817Z,10.20
2019-02-14T21:10:44.852Z,10.20
2019-02-14T21:13:15.836Z,10.10
2019-02-14T21:15:45.915Z,10.10
2019-02-14T21:18:17.113Z,10.10
2019-02-14T21:20:46.954Z,10.00
2019-02-14T21:23:19.170Z,10.10
2019-02-14T21:25:51.880Z,10.00
2019-02-14T21:28:23.947Z,10.00
2019-02-14T21:30:53.579Z,10.00
2019-02-14T21:33:23.839Z,9.90
2019-02-14T21:35:55.583Z,9.90
2019-02-14T21:38:25.193Z,9.90
2019-02-14T21:40:54.344Z,9.90
2019-02-14T21:43:24.836Z,9.90
2019-02-14T21:45:53.973Z,9.90
2019-02-14T21:48:23.161Z,9.90
2019-02-14T21:50:54.311Z,9.80
2019-02-14T21:53:23.696Z,9.80
2019-02-14T21:55:53.088Z,9.80
2019-02-14T21:58:22.679Z,9.80
2019-02-14T22:00:51.850Z,9.80
2019-02-14T22:03:21.437Z,9.70
2019-02-14T22:05:50.938Z,9.70
2019-02-14T22:08:20.257Z,9.70
2019-02-14T22:10:49.437Z,9.70
2019-02-14T22:13:19.244Z,9.60
2019-02-14T22:15:49.027Z,9.60
2019-02-14T22:18:18.719Z,9.60
2019-02-14T22:20:48.428Z,9.60
2019-02-14T22:23:17.897Z,9.60
2019-02-14T22:25:47.545Z,9.50
2019-02-14T22:28:16.636Z,9.50
2019-02-14T22:30:45.998Z,9.50
2019-02-14T22:33:15.616Z,9.50
2019-02-14T22:35:45.578Z,9.50
2019-02-14T22:38:14.947Z,9.50
2019-02-14T22:40:44.612Z,9.50
2019-02-14T22:43:14.194Z,9.40
2019-02-14T22:45:43.657Z,9.40
2019-02-14T22:48:13.173Z,9.40
2019-02-14T22:50:42.783Z,9.40
2019-02-14T22:53:12.433Z,9.40
2019-02-14T22:55:41.722Z,9.30
2019-02-14T22:58:12.207Z,9.30
2019-02-14T23:00:52.951Z,9.30
2019-02-14T23:03:23.853Z,9.30
2019-02-14T23:05:59.743Z,9.30
2019-02-14T23:08:30.563Z,9.30
2019-02-14T23:11:03.550Z,9.30
2019-02-14T23:13:36.031Z,9.20
2019-02-14T23:16:05.686Z,9.20
2019-02-14T23:18:37.247Z,9.20
2019-02-14T23:21:08.698Z,9.20
2019-02-14T23:23:38.651Z,9.20
2019-02-14T23:26:11.022Z,9.10
2019-02-14T23:28:40.961Z,9.10
2019-02-14T23:31:10.334Z,9.10
2019-02-14T23:33:39.888Z,9.10
2019-02-14T23:36:09.550Z,9.00
2019-02-14T23:38:39.860Z,9.00
2019-02-14T23:41:10.260Z,9.00
2019-02-14T23:43:43.601Z,9.00
2019-02-14T23:46:13.469Z,9.00
2019-02-14T23:48:43.732Z,8.90
2019-02-14T23:51:13.059Z,8.90
2019-02-14T23:53:42.527Z,8.90
2019-02-14T23:56:12.162Z,8.90
2019-02-14T23:58:41.683Z,8.80
